| time (UTC) | temp F | wind direction | speed knots | gust knots | rain 1hr in | rain 24hr in | rain mn in | humidity % | barometer mb |
| 20260504190109 | 73 | 160 | 9.6 | 13.9 | 0.00 | 0.00 | 0.00 | 44 | 1016.1 |
| 20260504184558 | 73 | 164 | 7.0 | 10.4 | 0.00 | 0.00 | 0.00 | 43 | 1016.2 |
| 20260504183046 | 72 | 146 | 7.8 | 10.4 | 0.00 | 0.00 | 0.00 | 48 | 1016.4 |
| 20260504181553 | 72 | 144 | 7.8 | 10.4 | 0.00 | 0.00 | 0.00 | 47 | 1016.3 |
| 20260504180056 | 72 | 144 | 7.8 | 10.4 | 0.00 | 0.00 | 0.00 | 48 | 1016.5 |
| 20260504174555 | 72 | 145 | 7.0 | 9.6 | 0.00 | 0.00 | 0.00 | 48 | 1016.6 |
| 20260504173056 | 71 | 148 | 7.8 | 10.4 | 0.00 | 0.00 | 0.00 | 47 | 1016.9 |
| 20260504171554 | 71 | 161 | 7.8 | 11.3 | 0.00 | 0.00 | 0.00 | 46 | 1017.0 |
| 20260504140104 | 68 | 0 | 0.0 | 0.9 | 0.00 | 0.00 | 0.00 | 58 | 1018.3 |
| 20260504110116 | 53 | 349 | 0.9 | 3.5 | 0.00 | 0.00 | 0.00 | 84 | 1017.3 |
| 20260504090117 | 54 | 354 | 0.9 | 2.6 | 0.00 | 0.00 | 0.00 | 83 | 1017.2 |
| 20260504081603 | 55 | 351 | 0.9 | 2.6 | 0.00 | 0.00 | 0.00 | 83 | 1017.4 |
| 20260504044625 | 59 | 333 | 0.0 | 1.7 | 0.00 | 0.00 | 0.00 | 81 | 1018.2 |
| 20260504043047 | 59 | 333 | 1.7 | 3.5 | 0.00 | 0.00 | 0.00 | 81 | 1018.1 |
| 20260504041554 | 60 | 331 | 2.6 | 4.3 | 0.00 | 0.00 | 0.00 | 79 | 1018.1 |
| 20260504040053 | 61 | 306 | 0.0 | 1.7 | 0.00 | 0.00 | 0.00 | 81 | 1018.1 |
| 20260504034554 | 61 | 305 | 0.9 | 2.6 | 0.00 | 0.00 | 0.00 | 79 | 1018.2 |
| 20260504033054 | 62 | 0 | 0.0 | 1.7 | 0.00 | 0.00 | 0.00 | 79 | 1018.3 |
| 20260504031550 | 62 | 0 | 0.0 | 1.7 | 0.00 | 0.00 | 0.00 | 77 | 1018.3 |
| 20260504030052 | 64 | 0 | 0.0 | 1.7 | 0.00 | 0.00 | 0.00 | 75 | 1018.2 |
| 20260504024552 | 64 | 303 | 0.0 | 1.7 | 0.00 | 0.00 | 0.00 | 73 | 1018.1 |
| 20260504023049 | 65 | 0 | 0.0 | 0.0 | 0.00 | 0.00 | 0.00 | 69 | 1017.9 |
| 20260504021552 | 66 | 0 | 0.0 | 0.0 | 0.00 | 0.00 | 0.00 | 66 | 1017.8 |
| 20260504020046 | 67 | 0 | 0.0 | 0.0 | 0.00 | 0.00 | 0.00 | 66 | 1017.7 |
| 20260504014548 | 68 | 0 | 0.0 | 0.0 | 0.00 | 0.00 | 0.00 | 63 | 1017.5 |
| 20260504013054 | 68 | 0 | 0.0 | 2.6 | 0.00 | 0.00 | 0.00 | 60 | 1017.3 |
| 20260504011551 | 69 | 0 | 0.0 | 0.9 | 0.00 | 0.00 | 0.00 | 60 | 1017.1 |
| 20260504010057 | 70 | 0 | 0.0 | 3.5 | 0.00 | 0.00 | 0.00 | 57 | 1017.0 |
| 20260504004552 | 70 | 0 | 0.0 | 3.5 | 0.00 | 0.00 | 0.00 | 56 | 1016.9 |
| 20260504003051 | 70 | 222 | 0.0 | 4.3 | 0.00 | 0.00 | 0.00 | 54 | 1016.8 |
| 20260504001611 | 71 | 225 | 0.0 | 3.5 | 0.00 | 0.00 | 0.00 | 52 | 1016.8 |
| 20260504000056 | 71 | 188 | 2.6 | 7.0 | 0.00 | 0.00 | 0.00 | 54 | 1016.7 |
| 20260503234550 | 72 | 191 | 2.6 | 7.8 | 0.00 | 0.00 | 0.00 | 50 | 1016.6 |
| 20260503233053 | 72 | 198 | 1.7 | 4.3 | 0.00 | 0.00 | 0.00 | 49 | 1016.5 |
| 20260503231548 | 72 | 217 | 5.2 | 9.6 | 0.00 | 0.00 | 0.00 | 48 | 1016.5 |
| 20260503230053 | 72 | 221 | 5.2 | 11.3 | 0.00 | 0.00 | 0.00 | 49 | 1016.5 |
| 20260503224550 | 72 | 177 | 7.8 | 12.2 | 0.00 | 0.00 | 0.00 | 49 | 1016.4 |
| 20260503223051 | 73 | 208 | 5.2 | 10.4 | 0.00 | 0.00 | 0.00 | 47 | 1016.4 |
| 20260503221551 | 74 | 0 | 1.7 | 8.7 | 0.00 | 0.00 | 0.00 | 45 | 1016.4 |
| 20260503220106 | 75 | 132 | 1.7 | 7.0 | 0.00 | 0.00 | 0.00 | 44 | 1016.6 |
| 20260503214548 | 75 | 190 | 0.0 | 7.8 | 0.00 | 0.00 | 0.00 | 44 | 1016.7 |
| 20260503213049 | 76 | 331 | 6.1 | 10.4 | 0.00 | 0.00 | 0.00 | 36 | 1016.8 |
| 20260503211605 | 76 | 41 | 1.7 | 8.7 | 0.00 | 0.00 | 0.00 | 32 | 1016.9 |
| 20260503210056 | 75 | 0 | 4.3 | 11.3 | 0.00 | 0.00 | 0.00 | 32 | 1017.1 |
| 20260503204555 | 75 | 26 | 8.7 | 14.8 | 0.00 | 0.00 | 0.00 | 33 | 1017.4 |
| 20260503203050 | 75 | 29 | 4.3 | 13.0 | 0.00 | 0.00 | 0.00 | 32 | 1017.5 |
| 20260503201549 | 76 | 15 | 0.9 | 15.6 | 0.00 | 0.00 | 0.00 | 34 | 1017.7 |
| 20260503200047 | 75 | 301 | 5.2 | 13.9 | 0.00 | 0.00 | 0.00 | 33 | 1018.0 |
| 20260503194549 | 75 | 359 | 3.5 | 8.7 | 0.00 | 0.00 | 0.00 | 35 | 1018.1 |
| 20260503193053 | 75 | 319 | 12.2 | 16.5 | 0.00 | 0.00 | 0.00 | 33 | 1018.5 |
| 20260503191550 | 74 | 330 | 3.5 | 11.3 | 0.00 | 0.00 | 0.00 | 35 | 1018.8 |